createdAt,value
2022-09-02T00:01:28.198Z,57.77
2022-09-02T00:03:59.532Z,57.94
2022-09-02T00:06:29.225Z,58.16
2022-09-02T00:08:57.945Z,58.29
2022-09-02T00:11:29.802Z,58.35
2022-09-02T00:13:58.412Z,60.05
2022-09-02T00:16:27.110Z,60.09
2022-09-02T00:18:56.962Z,58.95
2022-09-02T00:21:25.770Z,58.93
2022-09-02T00:23:54.750Z,58.57
2022-09-02T00:26:24.756Z,58.62
2022-09-02T00:28:55.834Z,57.99
2022-09-02T00:31:28.471Z,57.95
2022-09-02T00:33:56.912Z,57.93
2022-09-02T00:36:25.167Z,57.86
2022-09-02T00:38:54.427Z,58.65
2022-09-02T00:41:25.228Z,58.37
2022-09-02T00:43:58.088Z,58.02
2022-09-02T00:46:28.603Z,57.89
2022-09-02T00:49:02.121Z,57.96
2022-09-02T00:51:35.505Z,58.00
2022-09-02T00:54:06.323Z,58.10
2022-09-02T00:56:35.298Z,57.61
2022-09-02T00:59:05.364Z,57.67
2022-09-02T01:01:33.645Z,57.53
2022-09-02T01:04:01.643Z,57.42
2022-09-02T01:06:33.426Z,57.56
2022-09-02T01:09:08.191Z,57.84
2022-09-02T01:11:43.010Z,57.59
2022-09-02T01:14:13.757Z,58.16
2022-09-02T01:16:45.059Z,58.05
2022-09-02T01:19:21.901Z,58.17
2022-09-02T01:21:53.152Z,57.61
2022-09-02T01:24:23.452Z,58.26
2022-09-02T01:26:55.030Z,58.16
2022-09-02T01:29:24.457Z,57.94
2022-09-02T01:31:53.779Z,58.45
2022-09-02T01:34:22.974Z,58.65
2022-09-02T01:36:53.069Z,58.86
2022-09-02T01:39:21.047Z,58.62
2022-09-02T01:41:49.077Z,58.38
2022-09-02T01:44:18.006Z,58.65
2022-09-02T01:46:50.781Z,58.75
2022-09-02T01:49:19.724Z,58.68
2022-09-02T01:51:49.091Z,59.00
2022-09-02T01:54:19.260Z,59.13
2022-09-02T01:56:47.255Z,59.47
2022-09-02T01:59:18.024Z,60.44
2022-09-02T02:01:46.970Z,60.85
2022-09-02T02:04:17.136Z,61.56
2022-09-02T02:06:52.462Z,62.44
2022-09-02T02:09:23.945Z,63.00
2022-09-02T02:11:54.129Z,62.68
2022-09-02T02:14:22.975Z,63.53
2022-09-02T02:16:52.658Z,64.64
2022-09-02T02:19:20.560Z,64.79
2022-09-02T02:21:49.911Z,64.95
2022-09-02T02:24:18.266Z,64.92
2022-09-02T02:26:47.632Z,65.73
2022-09-02T02:29:17.678Z,66.85
2022-09-02T02:31:46.867Z,68.23
2022-09-02T02:34:15.625Z,69.42
2022-09-02T02:36:44.878Z,69.78
2022-09-02T02:39:13.838Z,70.26
2022-09-02T02:41:44.830Z,69.71
2022-09-02T02:44:15.676Z,69.61
2022-09-02T02:46:44.224Z,70.76
2022-09-02T02:49:13.408Z,71.64
2022-09-02T02:51:42.720Z,71.96
2022-09-02T02:54:11.203Z,71.78
2022-09-02T02:56:39.770Z,71.71
2022-09-02T02:59:08.468Z,71.96
2022-09-02T03:01:37.960Z,73.20
2022-09-02T03:04:07.494Z,73.52
2022-09-02T03:06:36.549Z,74.07
2022-09-02T03:09:06.015Z,75.08
2022-09-02T03:11:36.789Z,75.40
2022-09-02T03:14:06.093Z,75.74
2022-09-02T03:16:37.186Z,76.16
2022-09-02T03:19:05.571Z,77.08
2022-09-02T03:21:38.855Z,77.12
2022-09-02T03:24:10.973Z,77.19
2022-09-02T03:26:42.313Z,76.65
2022-09-02T03:29:12.011Z,75.97
2022-09-02T03:31:41.335Z,76.38
2022-09-02T03:34:09.987Z,76.25
2022-09-02T03:36:40.131Z,76.45
2022-09-02T03:39:11.520Z,76.76
2022-09-02T03:41:42.499Z,76.64
2022-09-02T03:44:12.409Z,77.24
2022-09-02T03:46:44.130Z,77.13
2022-09-02T03:49:13.348Z,76.35
2022-09-02T03:51:43.415Z,76.64
2022-09-02T03:54:12.166Z,76.43
2022-09-02T03:56:41.725Z,76.64
2022-09-02T03:59:10.712Z,76.55
2022-09-02T04:01:38.842Z,76.90
2022-09-02T04:04:09.945Z,76.81
2022-09-02T04:06:40.475Z,76.56
2022-09-02T04:09:08.663Z,76.50
2022-09-02T04:11:42.881Z,75.58
2022-09-02T04:14:13.362Z,76.40
2022-09-02T04:16:42.105Z,76.63
2022-09-02T04:19:11.827Z,75.99
2022-09-02T04:21:42.447Z,74.57
2022-09-02T04:24:13.036Z,75.58
2022-09-02T04:26:45.520Z,75.70
2022-09-02T04:29:16.619Z,75.27
2022-09-02T04:31:46.347Z,74.96
2022-09-02T04:34:16.134Z,74.64
2022-09-02T04:36:44.888Z,74.56
2022-09-02T04:39:13.769Z,74.64
2022-09-02T04:41:42.614Z,74.38
2022-09-02T04:44:12.993Z,75.03
2022-09-02T04:46:44.112Z,74.87
2022-09-02T04:49:17.284Z,74.94
2022-09-02T04:51:47.049Z,74.70
2022-09-02T04:54:15.686Z,73.72
2022-09-02T04:56:47.663Z,73.53
2022-09-02T04:59:16.200Z,72.64
2022-09-02T05:01:52.234Z,72.50
2022-09-02T05:04:26.760Z,72.80
2022-09-02T05:06:58.207Z,72.79
2022-09-02T05:09:26.450Z,71.90
2022-09-02T05:12:04.271Z,71.65
2022-09-02T05:14:43.602Z,71.62
2022-09-02T05:17:12.435Z,71.11
2022-09-02T05:19:45.112Z,71.59
2022-09-02T05:22:15.136Z,71.73
2022-09-02T05:24:45.667Z,71.95
2022-09-02T05:27:16.434Z,71.52
2022-09-02T05:29:46.370Z,72.45
2022-09-02T05:32:16.977Z,73.28
2022-09-02T05:34:50.281Z,74.81
2022-09-02T05:37:19.083Z,74.87
2022-09-02T05:39:49.361Z,74.74
2022-09-02T05:42:20.605Z,74.25
2022-09-02T05:44:51.777Z,73.96
2022-09-02T05:47:22.508Z,73.85
2022-09-02T05:49:51.974Z,73.05
2022-09-02T05:52:20.234Z,72.40
2022-09-02T05:54:52.610Z,72.16
2022-09-02T05:57:23.368Z,72.22
2022-09-02T06:00:08.540Z,71.30
2022-09-02T06:02:46.866Z,71.39
2022-09-02T06:05:26.160Z,71.70
2022-09-02T06:08:16.237Z,71.84
2022-09-02T06:10:44.625Z,70.18
2022-09-02T06:13:22.880Z,69.16
2022-09-02T06:15:54.129Z,67.54
2022-09-02T06:18:26.464Z,66.79
2022-09-02T06:20:57.521Z,65.91
2022-09-02T06:23:34.658Z,65.40
2022-09-02T06:26:04.095Z,65.54
2022-09-02T06:28:32.593Z,63.44
2022-09-02T06:31:01.228Z,61.23
2022-09-02T06:33:29.706Z,60.88
2022-09-02T06:35:58.641Z,59.95
2022-09-02T06:38:27.231Z,57.81
2022-09-02T06:40:57.557Z,57.66
2022-09-02T06:43:42.346Z,58.49
2022-09-02T06:46:26.438Z,57.43
2022-09-02T06:48:57.551Z,56.66
2022-09-02T06:51:31.435Z,56.59
2022-09-02T06:54:01.827Z,55.59
2022-09-02T06:56:35.884Z,55.35
2022-09-02T06:59:06.113Z,54.42
2022-09-02T07:01:58.140Z,53.56
2022-09-02T07:04:45.223Z,53.22
2022-09-02T07:07:16.568Z,52.28
2022-09-02T07:10:15.361Z,52.65
2022-09-02T07:12:49.920Z,51.06
2022-09-02T07:15:19.178Z,49.92
2022-09-02T07:17:49.899Z,50.02
2022-09-02T07:20:33.445Z,49.18
2022-09-02T07:23:04.885Z,47.73
2022-09-02T07:25:35.030Z,46.81
2022-09-02T07:28:05.773Z,46.34
2022-09-02T07:30:37.446Z,45.24
2022-09-02T07:33:14.187Z,44.50
2022-09-02T07:35:45.607Z,45.40
2022-09-02T07:38:16.686Z,45.91
2022-09-02T07:40:47.246Z,45.17
2022-09-02T07:43:19.065Z,43.28
2022-09-02T07:45:47.124Z,43.64
2022-09-02T07:48:16.035Z,43.42
2022-09-02T07:50:47.457Z,43.42
2022-09-02T07:53:18.899Z,42.94
2022-09-02T07:55:48.180Z,41.85
2022-09-02T07:58:20.885Z,40.98
2022-09-02T08:00:52.249Z,40.63
2022-09-02T08:03:24.082Z,41.23
2022-09-02T08:05:57.419Z,41.36
2022-09-02T08:08:28.830Z,41.16
2022-09-02T08:10:57.194Z,40.29
2022-09-02T08:13:28.445Z,39.62
2022-09-02T08:15:56.978Z,38.97
2022-09-02T08:18:25.357Z,37.60
2022-09-02T08:20:53.879Z,37.18
2022-09-02T08:23:36.681Z,36.00
2022-09-02T08:26:06.667Z,36.15
2022-09-02T08:28:36.498Z,34.98
2022-09-02T08:31:08.356Z,35.80
2022-09-02T08:33:36.885Z,37.88
2022-09-02T08:36:06.684Z,37.87
2022-09-02T08:38:35.982Z,38.16
2022-09-02T08:41:04.339Z,38.63
2022-09-02T08:43:40.306Z,37.93
2022-09-02T08:46:12.286Z,37.94
2022-09-02T08:48:45.361Z,38.09
2022-09-02T08:51:21.858Z,37.51
2022-09-02T08:53:55.454Z,37.37
2022-09-02T08:56:24.575Z,38.02
2022-09-02T08:58:56.181Z,37.06
2022-09-02T09:01:36.741Z,37.63
2022-09-02T09:04:27.077Z,37.54
2022-09-02T09:07:10.107Z,37.21
2022-09-02T09:09:54.614Z,36.68
2022-09-02T09:12:33.415Z,36.25
2022-09-02T09:15:11.121Z,35.77
2022-09-02T09:17:45.697Z,37.29
2022-09-02T09:20:20.574Z,36.70
2022-09-02T09:22:51.210Z,37.75
2022-09-02T09:25:30.187Z,37.20
2022-09-02T09:28:03.531Z,36.31
2022-09-02T09:30:33.446Z,36.26
2022-09-02T09:33:02.961Z,35.99
2022-09-02T09:35:49.669Z,35.07
2022-09-02T09:38:30.737Z,34.93
2022-09-02T09:41:29.011Z,33.72
2022-09-02T09:43:56.995Z,34.51
2022-09-02T09:46:32.493Z,34.54
2022-09-02T09:49:03.591Z,34.22
2022-09-02T09:51:49.708Z,31.60
2022-09-02T09:54:19.538Z,31.40
2022-09-02T09:56:48.113Z,31.46
2022-09-02T09:59:40.839Z,30.05
2022-09-02T10:02:21.020Z,27.32
2022-09-02T10:04:49.662Z,27.09
2022-09-02T10:07:36.654Z,26.78
2022-09-02T10:10:19.006Z,24.92
2022-09-02T10:12:49.284Z,25.89
2022-09-02T10:15:26.529Z,24.42
2022-09-02T10:18:14.190Z,25.98
2022-09-02T10:21:11.762Z,27.04
2022-09-02T10:23:49.817Z,24.30
2022-09-02T10:26:29.668Z,23.66
2022-09-02T10:29:20.203Z,24.07
2022-09-02T10:31:55.172Z,23.15
2022-09-02T10:34:34.752Z,21.27
2022-09-02T10:37:18.207Z,22.16
2022-09-02T10:40:04.210Z,23.92
2022-09-02T10:42:41.277Z,23.17
2022-09-02T10:45:18.361Z,23.95
2022-09-02T10:47:55.160Z,22.67
2022-09-02T10:50:32.788Z,22.92
2022-09-02T10:53:22.097Z,22.29
2022-09-02T10:55:55.165Z,20.82
2022-09-02T10:58:27.541Z,20.22
2022-09-02T11:00:58.407Z,19.32
2022-09-02T11:03:34.678Z,19.75
2022-09-02T11:06:10.574Z,19.50
2022-09-02T11:08:42.677Z,19.97
2022-09-02T11:11:21.251Z,18.78
2022-09-02T11:14:01.444Z,17.83
2022-09-02T11:16:39.151Z,19.48
2022-09-02T11:19:15.393Z,17.76
2022-09-02T11:21:59.429Z,18.06
2022-09-02T11:24:32.301Z,18.30
2022-09-02T11:27:25.795Z,19.13
2022-09-02T11:30:05.414Z,18.53
2022-09-02T11:32:40.538Z,17.93
2022-09-02T11:35:13.989Z,17.50
2022-09-02T11:37:47.833Z,18.58
2022-09-02T11:40:34.973Z,19.51
2022-09-02T11:43:24.160Z,18.61
2022-09-02T11:46:36.958Z,17.30
2022-09-02T11:49:22.408Z,17.41
2022-09-02T11:52:02.125Z,17.93
2022-09-02T11:54:38.535Z,17.61
2022-09-02T11:57:08.584Z,17.52
2022-09-02T12:00:24.415Z,17.39
2022-09-02T12:03:11.620Z,17.61
2022-09-02T12:05:51.754Z,17.00
2022-09-02T12:09:07.144Z,16.31
2022-09-02T12:11:55.657Z,15.34
2022-09-02T12:15:05.938Z,14.76
2022-09-02T12:18:02.118Z,15.17
2022-09-02T12:21:16.879Z,16.26
2022-09-02T12:24:10.309Z,16.19
2022-09-02T12:27:09.480Z,15.23
2022-09-02T12:29:39.724Z,16.44
2022-09-02T12:32:10.095Z,16.11
2022-09-02T12:34:55.062Z,14.80
2022-09-02T12:37:53.935Z,14.57
2022-09-02T12:40:32.254Z,15.21
2022-09-02T12:43:07.761Z,15.33
2022-09-02T12:45:45.045Z,15.21
2022-09-02T12:48:17.408Z,15.38
2022-09-02T12:50:56.213Z,16.07
2022-09-02T12:53:41.629Z,15.27
2022-09-02T12:56:21.853Z,15.08
2022-09-02T12:58:57.794Z,15.03
2022-09-02T13:01:38.606Z,14.39
2022-09-02T13:04:27.127Z,14.36
2022-09-02T13:07:22.735Z,14.99
2022-09-02T13:10:21.286Z,16.09
2022-09-02T13:13:13.976Z,16.21
2022-09-02T13:16:17.377Z,15.90
2022-09-02T13:19:24.297Z,15.85
2022-09-02T13:22:16.696Z,12.66
2022-09-02T13:25:29.241Z,12.68
2022-09-02T13:28:37.012Z,13.70
2022-09-02T13:31:22.559Z,12.56
2022-09-02T13:34:01.990Z,13.99
2022-09-02T13:36:33.887Z,15.28
2022-09-02T13:39:13.687Z,15.16
2022-09-02T13:41:42.063Z,13.87
2022-09-02T13:44:11.704Z,14.69
2022-09-02T13:46:50.323Z,14.14
2022-09-02T13:49:27.811Z,15.38
2022-09-02T13:51:57.649Z,15.96
2022-09-02T13:54:36.466Z,15.48
2022-09-02T13:57:07.908Z,14.38
2022-09-02T13:59:38.442Z,14.26
2022-09-02T14:02:27.050Z,14.90
2022-09-02T14:04:59.567Z,14.67
2022-09-02T14:07:36.595Z,15.27
2022-09-02T14:10:08.914Z,15.81
2022-09-02T14:12:38.947Z,14.96
2022-09-02T14:15:09.457Z,15.69
2022-09-02T14:17:39.173Z,15.98
2022-09-02T14:20:17.866Z,15.33
2022-09-02T14:22:53.450Z,16.59
2022-09-02T14:25:27.108Z,16.63
2022-09-02T14:27:57.867Z,15.83
2022-09-02T14:30:32.420Z,15.72
2022-09-02T14:33:27.415Z,17.23
2022-09-02T14:36:00.904Z,17.76
2022-09-02T14:38:30.870Z,17.53
2022-09-02T14:41:04.504Z,17.92
2022-09-02T14:43:43.813Z,17.91
2022-09-02T14:46:26.065Z,17.68
2022-09-02T14:49:00.450Z,17.24
2022-09-02T14:51:38.219Z,17.46
2022-09-02T14:54:07.738Z,17.89
2022-09-02T14:56:50.871Z,17.43
2022-09-02T14:59:19.470Z,17.42
2022-09-02T15:01:50.900Z,18.38
2022-09-02T15:04:23.201Z,16.69
2022-09-02T15:06:52.069Z,15.68
2022-09-02T15:09:20.827Z,17.12
2022-09-02T15:11:52.476Z,18.99
2022-09-02T15:14:22.714Z,19.97
2022-09-02T15:16:55.220Z,19.48
2022-09-02T15:19:24.580Z,20.34
2022-09-02T15:21:53.289Z,19.06
2022-09-02T15:24:21.844Z,18.89
2022-09-02T15:26:50.029Z,18.32
2022-09-02T15:29:19.202Z,18.70
2022-09-02T15:31:53.205Z,17.85
2022-09-02T15:34:22.659Z,17.92
2022-09-02T15:36:52.203Z,17.22
2022-09-02T15:39:20.670Z,17.86
2022-09-02T15:41:50.066Z,17.35
2022-09-02T15:44:19.774Z,17.28
2022-09-02T15:46:48.452Z,17.88
2022-09-02T15:49:17.304Z,19.01
2022-09-02T15:51:47.377Z,19.12
2022-09-02T15:54:17.905Z,18.93
2022-09-02T15:56:48.801Z,19.07
2022-09-02T15:59:20.288Z,18.85
2022-09-02T16:01:51.591Z,19.47
2022-09-02T16:04:19.754Z,19.30
2022-09-02T16:06:52.601Z,18.38
2022-09-02T16:09:23.087Z,18.33
2022-09-02T16:11:53.054Z,19.01
2022-09-02T16:14:23.819Z,20.19
2022-09-02T16:16:55.811Z,19.50
2022-09-02T16:19:29.772Z,19.64
2022-09-02T16:21:58.730Z,20.54
2022-09-02T16:24:28.836Z,21.20
2022-09-02T16:26:59.259Z,21.85
2022-09-02T16:29:28.301Z,22.10
2022-09-02T16:32:14.451Z,21.45
2022-09-02T16:34:46.848Z,22.34
2022-09-02T16:37:15.195Z,21.95
2022-09-02T16:39:44.604Z,21.77
2022-09-02T16:42:12.635Z,21.01
2022-09-02T16:44:42.071Z,21.08
2022-09-02T16:47:13.707Z,21.97
2022-09-02T16:49:42.193Z,23.22
2022-09-02T16:52:11.119Z,23.40
2022-09-02T16:54:40.928Z,23.33
2022-09-02T16:57:11.205Z,24.20
2022-09-02T16:59:38.959Z,24.50
2022-09-02T17:02:07.742Z,24.54
2022-09-02T17:04:36.757Z,24.43
2022-09-02T17:07:05.166Z,23.85
2022-09-02T17:09:33.866Z,24.51
2022-09-02T17:12:02.092Z,24.95
2022-09-02T17:14:32.103Z,25.32
2022-09-02T17:17:00.054Z,25.61
2022-09-02T17:19:32.154Z,25.41
2022-09-02T17:22:01.730Z,26.10
2022-09-02T17:24:30.951Z,26.75
2022-09-02T17:27:00.672Z,27.31
2022-09-02T17:32:20.350Z,27.93
2022-09-02T17:34:50.460Z,28.15
2022-09-02T17:37:19.443Z,28.22
2022-09-02T17:39:49.196Z,28.42
2022-09-02T17:42:16.930Z,28.54
2022-09-02T17:44:46.330Z,29.02
2022-09-02T17:47:17.097Z,28.96
2022-09-02T17:49:47.606Z,29.31
2022-09-02T17:52:17.207Z,29.80
2022-09-02T17:54:47.315Z,30.17
2022-09-02T17:57:37.947Z,30.93
2022-09-02T18:00:10.960Z,31.32
2022-09-02T18:03:13.930Z,31.86
2022-09-02T18:05:58.878Z,32.14
2022-09-02T18:08:35.136Z,32.58
2022-09-02T18:11:05.190Z,32.87
2022-09-02T18:13:40.994Z,33.03
2022-09-02T18:16:25.607Z,33.24
2022-09-02T18:19:02.801Z,33.53
2022-09-02T18:21:42.211Z,34.01
2022-09-02T18:24:19.543Z,34.02
2022-09-02T18:27:01.341Z,34.49
2022-09-02T18:29:45.884Z,34.87
2022-09-02T18:32:26.477Z,34.96
2022-09-02T18:35:06.981Z,35.18
2022-09-02T18:37:54.983Z,35.21
2022-09-02T18:40:31.158Z,35.65
2022-09-02T18:43:15.993Z,35.60
2022-09-02T18:45:49.593Z,36.08
2022-09-02T18:48:22.383Z,36.44
2022-09-02T18:50:54.359Z,36.44
2022-09-02T18:53:28.898Z,36.46
2022-09-02T18:56:00.644Z,36.93
2022-09-02T18:58:38.017Z,36.88
2022-09-02T19:01:12.151Z,37.15
2022-09-02T19:03:40.303Z,37.08
2022-09-02T19:06:17.194Z,37.60
2022-09-02T19:08:47.044Z,37.94
2022-09-02T19:11:16.910Z,38.12
2022-09-02T19:13:49.992Z,37.91
2022-09-02T19:16:20.184Z,37.99
2022-09-02T19:18:49.552Z,38.11
2022-09-02T19:21:23.263Z,38.25
2022-09-02T19:23:53.368Z,38.00
2022-09-02T19:26:23.264Z,38.20
2022-09-02T19:28:53.126Z,38.35
2022-09-02T19:31:23.313Z,38.65
2022-09-02T19:33:52.912Z,38.67
2022-09-02T19:36:22.769Z,38.96
2022-09-02T19:38:52.146Z,39.24
2022-09-02T19:41:20.852Z,39.26
2022-09-02T19:43:49.637Z,39.50
2022-09-02T19:46:55.827Z,39.73
2022-09-02T19:49:06.312Z,40.11
2022-09-02T19:51:35.042Z,40.08
2022-09-02T19:54:05.332Z,40.26
2022-09-02T19:56:33.346Z,40.51
2022-09-02T19:59:02.199Z,40.23
2022-09-02T20:01:31.247Z,40.20
2022-09-02T20:03:59.466Z,40.67
2022-09-02T20:06:27.986Z,40.73
2022-09-02T20:08:56.074Z,40.86
2022-09-02T20:11:25.990Z,40.82
2022-09-02T20:13:54.154Z,41.02
2022-09-02T20:16:25.647Z,41.30
2022-09-02T20:18:55.327Z,41.12
2022-09-02T20:21:26.505Z,41.19
2022-09-02T20:23:55.726Z,41.45
2022-09-02T20:26:35.073Z,41.58
2022-09-02T20:29:16.520Z,41.63
2022-09-02T20:31:57.987Z,41.74
2022-09-02T20:34:39.883Z,41.85
2022-09-02T20:45:17.776Z,42.48
2022-09-02T20:47:58.438Z,42.42
2022-09-02T20:50:41.769Z,42.57
2022-09-02T20:53:21.389Z,42.66
2022-09-02T20:55:56.419Z,42.67
2022-09-02T20:58:38.026Z,42.58
2022-09-02T21:01:09.617Z,42.60
2022-09-02T21:03:51.455Z,42.63
2022-09-02T21:06:22.472Z,42.83
2022-09-02T21:08:59.887Z,42.79
2022-09-02T21:11:37.682Z,42.93
2022-09-02T21:14:10.169Z,42.70
2022-09-02T21:16:43.790Z,42.90
2022-09-02T21:19:22.619Z,42.82
2022-09-02T21:21:55.665Z,42.87
2022-09-02T21:24:28.557Z,43.02
2022-09-02T21:27:01.718Z,43.11
2022-09-02T21:29:37.215Z,43.35
2022-09-02T21:32:13.201Z,43.29
2022-09-02T21:34:46.977Z,43.49
2022-09-02T21:37:17.170Z,43.58
2022-09-02T21:39:54.762Z,43.41
2022-09-02T21:42:37.357Z,43.76
2022-09-02T21:45:13.858Z,43.69
2022-09-02T21:47:53.189Z,43.97
2022-09-02T21:50:28.132Z,44.12
2022-09-02T21:53:09.003Z,44.29
2022-09-02T21:55:58.297Z,44.31
2022-09-02T21:58:40.997Z,44.41
2022-09-02T22:01:19.162Z,44.80
2022-09-02T22:03:52.412Z,44.89
2022-09-02T22:06:27.752Z,44.90
2022-09-02T22:09:01.331Z,45.09
2022-09-02T22:11:33.398Z,45.19
2022-09-02T22:14:09.951Z,45.04
2022-09-02T22:16:51.201Z,45.38
2022-09-02T22:19:23.822Z,45.06
2022-09-02T22:21:55.719Z,45.40
2022-09-02T22:24:28.699Z,45.13
2022-09-02T22:27:00.310Z,45.15
2022-09-02T22:29:37.637Z,44.86
2022-09-02T22:32:11.208Z,45.13
2022-09-02T22:34:45.056Z,44.89
2022-09-02T22:37:19.037Z,45.10
2022-09-02T22:39:53.423Z,45.17
2022-09-02T22:42:32.541Z,45.26
2022-09-02T22:45:24.947Z,45.40
2022-09-02T22:48:24.848Z,45.60
2022-09-02T22:51:19.275Z,45.83
2022-09-02T22:53:50.467Z,45.86
2022-09-02T22:56:24.690Z,46.09
2022-09-02T22:59:03.579Z,46.31
2022-09-02T23:01:43.969Z,46.37
2022-09-02T23:04:29.336Z,46.42
2022-09-02T23:07:04.960Z,46.27
2022-09-02T23:09:34.358Z,46.28
2022-09-02T23:12:11.940Z,46.36
2022-09-02T23:14:47.847Z,46.30
2022-09-02T23:17:32.435Z,46.61
2022-09-02T23:20:10.710Z,46.38
2022-09-02T23:22:53.924Z,46.58
2022-09-02T23:25:36.920Z,46.69
2022-09-02T23:28:15.111Z,46.47
2022-09-02T23:30:53.766Z,46.85
2022-09-02T23:33:35.097Z,46.93
2022-09-02T23:36:13.967Z,46.96
2022-09-02T23:38:57.851Z,46.98
2022-09-02T23:41:28.007Z,47.03
2022-09-02T23:43:56.948Z,47.42
2022-09-02T23:46:38.360Z,47.42
2022-09-02T23:49:15.711Z,47.34
2022-09-02T23:51:56.858Z,47.47
2022-09-02T23:54:49.479Z,47.71
2022-09-02T23:57:34.052Z,47.71
